createdAt,value
2023-04-09T00:04:22.812Z,8.06
2023-04-09T00:08:20.861Z,8.05
2023-04-09T00:12:18.732Z,8.06
2023-04-09T00:16:16.752Z,8.06
2023-04-09T00:20:14.697Z,8.05
2023-04-09T00:24:16.052Z,8.05
2023-04-09T00:28:13.653Z,8.07
2023-04-09T00:32:12.669Z,8.10
2023-04-09T00:36:10.722Z,8.11
2023-04-09T00:40:08.668Z,8.10
2023-04-09T00:44:06.808Z,8.06
2023-04-09T00:48:04.742Z,7.96
2023-04-09T00:52:04.684Z,7.90
2023-04-09T00:56:02.694Z,7.88
2023-04-09T01:00:00.663Z,7.87
2023-04-09T01:03:58.808Z,7.87
2023-04-09T01:08:24.639Z,7.86
2023-04-09T01:12:46.788Z,7.87
2023-04-09T01:16:48.667Z,7.88
2023-04-09T01:20:54.624Z,7.89
2023-04-09T01:25:07.753Z,7.86
2023-04-09T01:29:08.700Z,7.85
2023-04-09T01:33:08.712Z,7.85
2023-04-09T01:37:12.576Z,7.84
2023-04-09T01:41:13.660Z,7.78
2023-04-09T01:45:12.718Z,7.76
2023-04-09T01:49:11.586Z,7.75
2023-04-09T01:53:10.595Z,7.76
2023-04-09T01:57:12.680Z,7.77
2023-04-09T02:01:16.612Z,7.78
2023-04-09T02:05:17.528Z,7.76
2023-04-09T02:09:19.632Z,7.70
2023-04-09T02:13:19.551Z,7.67
2023-04-09T02:17:19.581Z,7.64
2023-04-09T02:21:17.528Z,7.63
2023-04-09T02:25:15.547Z,7.65
2023-04-09T02:29:14.619Z,7.68
2023-04-09T02:33:13.558Z,7.65
2023-04-09T02:37:11.507Z,7.59
2023-04-09T02:41:10.651Z,7.54
2023-04-09T02:45:08.584Z,7.53
2023-04-09T02:49:06.504Z,7.56
2023-04-09T02:53:04.502Z,7.56
2023-04-09T02:57:03.561Z,7.55
2023-04-09T03:01:01.478Z,7.53
2023-04-09T03:04:59.717Z,7.54
2023-04-09T03:08:57.606Z,7.52
2023-04-09T03:12:55.456Z,7.50
2023-04-09T03:16:53.443Z,7.46
2023-04-09T03:20:54.523Z,7.41
2023-04-09T03:25:00.579Z,7.38
2023-04-09T03:28:58.540Z,7.35
2023-04-09T03:32:56.465Z,7.34
2023-04-09T03:36:58.600Z,7.35
2023-04-09T03:40:57.431Z,7.37
2023-04-09T03:44:57.557Z,7.38
2023-04-09T03:49:01.408Z,7.40
2023-04-09T03:53:04.447Z,7.39
2023-04-09T03:57:04.506Z,7.36
2023-04-09T04:01:04.427Z,7.35
2023-04-09T04:05:09.618Z,7.31
2023-04-09T04:09:10.478Z,7.30
2023-04-09T04:13:13.424Z,7.33
2023-04-09T04:17:16.423Z,7.37
2023-04-09T04:21:19.363Z,7.41
2023-04-09T04:25:21.446Z,7.48
2023-04-09T04:29:20.382Z,7.53
2023-04-09T04:33:24.428Z,7.55
2023-04-09T04:37:22.363Z,7.53
2023-04-09T04:41:22.334Z,7.55
2023-04-09T04:45:30.422Z,7.56
2023-04-09T04:49:33.390Z,7.57
2023-04-09T04:53:31.384Z,7.58
2023-04-09T04:57:34.502Z,7.55
2023-04-09T05:01:33.517Z,7.55
2023-04-09T05:05:33.394Z,7.58
2023-04-09T05:09:31.390Z,7.64
2023-04-09T05:13:31.403Z,7.75
2023-04-09T05:17:31.473Z,7.84
2023-04-09T05:21:30.416Z,7.97
2023-04-09T05:25:29.373Z,8.14
2023-04-09T05:29:34.569Z,8.32
2023-04-09T05:33:32.655Z,8.49
2023-04-09T05:37:35.333Z,8.70
2023-04-09T05:41:33.252Z,8.95
2023-04-09T05:45:49.258Z,9.30
2023-04-09T05:49:47.291Z,9.71
2023-04-09T05:53:46.303Z,10.02
2023-04-09T05:57:44.286Z,10.24
2023-04-09T06:01:42.395Z,10.33
2023-04-09T06:05:40.226Z,10.32
2023-04-09T06:09:38.270Z,10.32
2023-04-09T06:13:38.249Z,10.39
2023-04-09T06:17:36.379Z,10.49
2023-04-09T06:21:34.246Z,10.52
2023-04-09T06:25:32.222Z,10.54
2023-04-09T06:29:30.276Z,10.85
2023-04-09T06:33:28.266Z,11.14
2023-04-09T06:37:26.224Z,11.20
2023-04-09T06:41:24.259Z,11.26
2023-04-09T06:45:22.284Z,11.26
2023-04-09T06:49:20.256Z,11.15
2023-04-09T06:53:18.207Z,11.07
2023-04-09T06:57:16.162Z,11.04
2023-04-09T07:01:14.157Z,11.03
2023-04-09T07:05:13.226Z,11.12
2023-04-09T07:09:11.175Z,11.11
2023-04-09T07:13:09.255Z,11.19
2023-04-09T07:17:07.240Z,11.23
2023-04-09T07:21:07.260Z,11.31
2023-04-09T07:25:05.246Z,11.38
2023-04-09T07:29:03.190Z,11.65
2023-04-09T07:33:01.204Z,11.97
2023-04-09T07:37:02.116Z,12.02
2023-04-09T07:41:00.104Z,12.02
2023-04-09T07:44:59.231Z,12.13
2023-04-09T07:48:58.128Z,12.05
2023-04-09T07:52:56.189Z,11.91
2023-04-09T07:56:54.191Z,11.98
2023-04-09T08:00:52.110Z,12.13
2023-04-09T08:04:50.276Z,12.57
2023-04-09T08:08:49.258Z,12.81
2023-04-09T08:12:47.129Z,12.91
2023-04-09T08:16:45.261Z,12.97
2023-04-09T08:20:43.077Z,12.99
2023-04-09T08:24:41.093Z,12.95
2023-04-09T08:28:39.101Z,12.98
2023-04-09T08:32:37.256Z,13.12
2023-04-09T08:36:36.139Z,13.22
2023-04-09T08:40:34.122Z,13.03
2023-04-09T08:44:32.035Z,12.91
2023-04-09T08:48:31.105Z,12.96
2023-04-09T08:52:29.086Z,12.90
2023-04-09T08:56:28.079Z,12.95
2023-04-09T09:00:26.044Z,12.95
2023-04-09T09:04:24.170Z,13.06
2023-04-09T09:08:22.992Z,13.07
2023-04-09T09:12:21.086Z,13.37
2023-04-09T09:16:29.064Z,13.69
2023-04-09T09:20:36.026Z,13.83
2023-04-09T09:24:34.976Z,13.84
2023-04-09T09:28:33.017Z,13.95
2023-04-09T09:32:32.066Z,13.95
2023-04-09T09:36:47.078Z,13.95
2023-04-09T09:40:44.983Z,14.23
2023-04-09T09:44:46.992Z,14.71
2023-04-09T09:48:47.293Z,14.71
2023-04-09T09:52:44.993Z,14.43
2023-04-09T09:56:53.952Z,14.21
2023-04-09T10:00:54.113Z,14.08
2023-04-09T10:04:52.024Z,13.99
2023-04-09T10:08:52.347Z,13.91
2023-04-09T10:12:52.961Z,13.90
2023-04-09T10:16:50.977Z,13.76
2023-04-09T10:20:59.047Z,13.87
2023-04-09T10:24:56.951Z,14.10
2023-04-09T10:28:55.016Z,14.22
2023-04-09T10:32:53.010Z,14.72
2023-04-09T10:36:50.921Z,15.28
2023-04-09T10:40:48.916Z,15.57
2023-04-09T10:44:47.954Z,15.68
2023-04-09T10:48:47.933Z,15.74
2023-04-09T10:52:45.991Z,16.02
2023-04-09T10:56:44.033Z,16.38
2023-04-09T11:00:41.931Z,16.65
2023-04-09T11:05:05.986Z,16.88
2023-04-09T11:09:03.988Z,16.73
2023-04-09T11:13:03.980Z,16.37
2023-04-09T11:17:08.847Z,15.97
2023-04-09T11:21:13.894Z,15.51
2023-04-09T11:25:11.884Z,15.09
2023-04-09T11:29:12.910Z,15.05
2023-04-09T11:33:10.943Z,15.17
2023-04-09T11:37:14.005Z,15.34
2023-04-09T11:41:11.816Z,15.39
2023-04-09T11:45:09.868Z,15.50
2023-04-09T11:49:08.870Z,15.69
2023-04-09T11:53:09.285Z,16.19
2023-04-09T11:57:06.856Z,16.84
2023-04-09T12:01:07.862Z,17.41
2023-04-09T12:05:06.940Z,17.76
2023-04-09T12:09:07.827Z,17.85
2023-04-09T12:13:05.861Z,17.49
2023-04-09T12:17:06.874Z,17.04
2023-04-09T12:21:04.840Z,16.84
2023-04-09T12:25:02.956Z,16.48
2023-04-09T12:29:00.928Z,16.07
2023-04-09T12:32:59.027Z,15.86
2023-04-09T12:36:56.842Z,15.74
2023-04-09T12:40:54.859Z,15.76
2023-04-09T12:44:52.856Z,15.73
2023-04-09T12:48:50.806Z,15.41
2023-04-09T12:52:48.814Z,15.02
2023-04-09T12:56:47.806Z,14.72
2023-04-09T13:00:46.026Z,14.52
2023-04-09T13:04:45.811Z,14.41
2023-04-09T13:08:44.153Z,14.33
2023-04-09T13:12:41.786Z,14.23
2023-04-09T13:16:40.888Z,14.08
2023-04-09T13:20:39.069Z,13.99
2023-04-09T13:24:38.793Z,14.04
2023-04-09T13:28:37.793Z,14.01
2023-04-09T13:32:36.804Z,13.89
2023-04-09T13:36:34.782Z,13.78
2023-04-09T13:40:32.733Z,13.75
2023-04-09T13:44:30.766Z,13.71
2023-04-09T13:48:28.758Z,13.72
2023-04-09T13:52:29.386Z,13.79
2023-04-09T13:56:27.857Z,13.83
2023-04-09T14:00:26.734Z,13.83
2023-04-09T14:04:24.833Z,13.86
2023-04-09T14:08:22.799Z,13.91
2023-04-09T14:12:20.779Z,14.09
2023-04-09T14:16:18.808Z,14.33
2023-04-09T14:20:16.730Z,14.39
2023-04-09T14:24:14.804Z,14.51
2023-04-09T14:28:13.673Z,14.82
2023-04-09T14:32:11.833Z,15.09
2023-04-09T14:36:09.824Z,15.29
2023-04-09T14:40:07.650Z,15.62
2023-04-09T14:44:05.728Z,16.00
2023-04-09T14:48:03.884Z,16.20
2023-04-09T14:52:01.731Z,16.24
2023-04-09T14:55:59.675Z,16.01
2023-04-09T14:59:57.645Z,15.78
2023-04-09T15:03:55.884Z,15.60
2023-04-09T15:07:53.703Z,15.41
2023-04-09T15:11:51.686Z,15.41
2023-04-09T15:15:50.744Z,15.42
2023-04-09T15:19:48.677Z,15.27
2023-04-09T15:23:46.602Z,15.09
2023-04-09T15:27:44.722Z,14.99
2023-04-09T15:31:42.797Z,14.87
2023-04-09T15:35:40.710Z,14.65
2023-04-09T15:39:39.680Z,14.47
2023-04-09T15:43:37.594Z,14.33
2023-04-09T15:47:35.684Z,14.12
2023-04-09T15:51:33.596Z,14.02
2023-04-09T15:55:32.628Z,14.00
2023-04-09T15:59:31.570Z,14.02
2023-04-09T16:03:29.605Z,13.93
2023-04-09T16:07:28.627Z,13.81
2023-04-09T16:11:26.590Z,13.69
2023-04-09T16:15:24.676Z,13.60
2023-04-09T16:19:22.550Z,13.53
2023-04-09T16:23:20.629Z,13.44
2023-04-09T16:27:19.658Z,13.33
2023-04-09T16:31:17.730Z,13.26
2023-04-09T16:35:17.543Z,13.19
2023-04-09T16:39:16.700Z,13.11
2023-04-09T16:43:15.543Z,13.04
2023-04-09T16:47:14.541Z,12.97
2023-04-09T16:51:12.535Z,12.92
2023-04-09T16:55:10.536Z,12.88
2023-04-09T16:59:08.586Z,12.84
2023-04-09T17:03:06.706Z,12.78
2023-04-09T17:07:04.650Z,12.72
2023-04-09T17:11:08.529Z,12.65
2023-04-09T17:15:06.510Z,12.58
2023-04-09T17:19:04.627Z,12.52
2023-04-09T17:23:02.590Z,12.46
2023-04-09T17:27:00.476Z,12.40
2023-04-09T17:30:58.623Z,12.33
2023-04-09T17:34:56.535Z,12.28
2023-04-09T17:38:54.793Z,12.22
2023-04-09T17:42:52.509Z,12.14
2023-04-09T17:46:50.597Z,12.05
2023-04-09T17:50:48.483Z,11.96
2023-04-09T17:54:51.407Z,11.91
2023-04-09T17:58:49.459Z,11.87
2023-04-09T18:02:47.849Z,11.86
2023-04-09T18:06:45.428Z,11.85
2023-04-09T18:10:44.546Z,11.84
2023-04-09T18:14:42.468Z,11.82
2023-04-09T18:18:40.442Z,11.80
2023-04-09T18:22:38.425Z,11.79
2023-04-09T18:26:36.421Z,11.77
2023-04-09T18:30:34.435Z,11.74
2023-04-09T18:34:32.359Z,11.65
2023-04-09T18:38:30.446Z,11.55
2023-04-09T18:42:28.350Z,11.48
2023-04-09T18:46:28.697Z,11.42
2023-04-09T18:50:27.379Z,11.38
2023-04-09T18:54:25.392Z,11.35
2023-04-09T18:58:24.358Z,11.31
2023-04-09T19:02:22.597Z,11.25
2023-04-09T19:06:28.321Z,11.22
2023-04-09T19:10:27.404Z,11.20
2023-04-09T19:14:25.343Z,11.20
2023-04-09T19:18:23.461Z,11.18
2023-04-09T19:22:21.345Z,11.15
2023-04-09T19:26:19.403Z,11.12
2023-04-09T19:30:17.346Z,11.11
2023-04-09T19:34:19.872Z,11.08
2023-04-09T19:38:17.430Z,11.06
2023-04-09T19:42:15.385Z,11.03
2023-04-09T19:46:13.391Z,10.99
2023-04-09T19:50:11.375Z,10.96
2023-04-09T19:54:09.318Z,10.93
2023-04-09T19:58:07.277Z,10.91
2023-04-09T20:02:06.385Z,10.89
2023-04-09T20:06:04.408Z,10.86
2023-04-09T20:10:02.286Z,10.82
2023-04-09T20:14:00.370Z,10.78
2023-04-09T20:17:58.375Z,10.72
2023-04-09T20:21:56.420Z,10.66
2023-04-09T20:25:54.356Z,10.59
2023-04-09T20:29:52.284Z,10.51
2023-04-09T20:33:50.248Z,10.44
2023-04-09T20:37:48.238Z,10.35
2023-04-09T20:41:46.324Z,10.26
2023-04-09T20:45:44.383Z,10.19
2023-04-09T20:49:42.230Z,10.12
2023-04-09T20:53:40.262Z,10.04
2023-04-09T20:57:38.246Z,9.96
2023-04-09T21:01:36.392Z,9.89
2023-04-09T21:05:34.177Z,9.82
2023-04-09T21:09:33.297Z,9.72
2023-04-09T21:13:37.787Z,9.60
2023-04-09T21:17:44.245Z,9.48
2023-04-09T21:21:42.221Z,9.35
2023-04-09T21:25:44.235Z,9.23
2023-04-09T21:29:42.185Z,9.11
2023-04-09T21:33:42.200Z,8.98
2023-04-09T21:37:40.161Z,8.84
2023-04-09T21:41:38.227Z,8.71
2023-04-09T21:45:36.176Z,8.60
2023-04-09T21:49:34.158Z,8.48
2023-04-09T21:53:32.168Z,8.41
2023-04-09T21:57:30.251Z,8.39
2023-04-09T22:01:29.450Z,8.33
2023-04-09T22:05:27.243Z,8.28
2023-04-09T22:09:25.117Z,8.18
2023-04-09T22:13:23.290Z,8.07
2023-04-09T22:17:21.292Z,7.96
2023-04-09T22:21:19.117Z,7.87
2023-04-09T22:25:18.119Z,7.84
2023-04-09T22:29:17.133Z,7.83
2023-04-09T22:33:15.110Z,7.94
2023-04-09T22:37:13.207Z,8.05
2023-04-09T22:41:11.073Z,8.07
2023-04-09T22:45:09.091Z,8.08
2023-04-09T22:49:07.461Z,8.06
2023-04-09T22:53:05.094Z,8.03
2023-04-09T22:57:03.114Z,7.96
2023-04-09T23:01:02.086Z,7.88
2023-04-09T23:05:00.074Z,7.84
2023-04-09T23:08:58.150Z,7.81
2023-04-09T23:12:56.049Z,7.83
2023-04-09T23:16:54.125Z,7.86
2023-04-09T23:20:52.030Z,7.90
2023-04-09T23:24:50.099Z,7.93
2023-04-09T23:28:48.011Z,7.96
2023-04-09T23:32:46.070Z,7.99
2023-04-09T23:36:44.117Z,8.03
2023-04-09T23:40:41.993Z,8.07
2023-04-09T23:44:41.095Z,8.06
2023-04-09T23:48:39.082Z,8.04
2023-04-09T23:52:36.997Z,8.01
2023-04-09T23:56:35.023Z,8.01
